This is the latest recevied weather packets stored in our database for station/object OM8AKX-12. If no packets are shown the sender has not sent any weather packets the latest 10 day(s).
| Time | Temp. | Humidity | Pressure | Rain* | Wind** | Luminosity | Snow |
|---|---|---|---|---|---|---|---|
| 1777874999 | 15° C | 48% | 1014.6 hPa | - | - | - | - |
| 1777874100 | 13.33° C | 52% | 1014.7 hPa | - | - | - | - |
| 1777873200 | 10.56° C | 72% | 1014.7 hPa | - | - | - | - |
| 1777871400 | 8.33° C | 80% | 1014.7 hPa | - | - | - | - |
| 1777870509 | 7.22° C | 83% | 1014.6 hPa | - | - | - | - |
| 1777869599 | 6.67° C | 86% | 1014.5 hPa | - | - | - | - |
| 1777868706 | 6.11° C | 93% | 1014.5 hPa | - | - | - | - |
| 1777867799 | 5° C | 100% | 1014.4 hPa | - | - | - | - |
| 1777866899 | 3.89° C | 100% | 1014.4 hPa | - | - | - | - |
| 1777865999 | 3.33° C | 99% | 1014.3 hPa | - | - | - | - |
| 1777865099 | 3.33° C | 97% | 1014.3 hPa | - | - | - | - |
| 1777864199 | 3.33° C | 94% | 1014.4 hPa | - | - | - | - |
| 1777863302 | 3.89° C | 91% | 1014.3 hPa | - | - | - | - |
| 1777862403 | 4.44° C | 87% | 1014.2 hPa | - | - | - | - |
| 1777860599 | 5.56° C | 86% | 1014.3 hPa | - | - | - | - |
| 1777859699 | 5° C | 82% | 1014.2 hPa | - | - | - | - |
| 1777858800 | 5.56° C | 80% | 1014.2 hPa | - | - | - | - |
| 1777856998 | 6.11° C | 78% | 1014.2 hPa | - | - | - | - |
| 1777856098 | 6.11° C | 79% | 1014.2 hPa | - | - | - | - |
| 1777855198 | 5.56° C | 78% | 1014.2 hPa | - | - | - | - |
| 1777854298 | 6.11° C | 77% | 1014.3 hPa | - | - | - | - |
| 1777853398 | 6.11° C | 77% | 1014.2 hPa | - | - | - | - |
| 1777852498 | 5.56° C | 77% | 1014.2 hPa | - | - | - | - |
| 1777851598 | 6.11° C | 75% | 1014.3 hPa | - | - | - | - |
| 1777850699 | 6.11° C | 78% | 1014.5 hPa | - | - | - | - |
* Rain since midnight (hover to see other rain measurements)
** Current wind speed in m/s (hover to see current wind gust speed)